sensor_id;sensor_type;location;lat;lon;timestamp;P1;durP1;ratioP1;P2;durP2;ratioP2
9972;SDS011;5027;53.560;10.062;2023-02-15T00:01:42;41.97;;;35.03;;
9972;SDS011;5027;53.560;10.062;2023-02-15T00:04:09;43.47;;;36.17;;
9972;SDS011;5027;53.560;10.062;2023-02-15T00:06:39;43.67;;;33.63;;
9972;SDS011;5027;53.560;10.062;2023-02-15T00:09:06;43.23;;;34.60;;
9972;SDS011;5027;53.560;10.062;2023-02-15T00:11:34;43.93;;;36.20;;
9972;SDS011;5027;53.560;10.062;2023-02-15T00:14:10;39.77;;;34.53;;
9972;SDS011;5027;53.560;10.062;2023-02-15T00:16:37;41.47;;;33.43;;
9972;SDS011;5027;53.560;10.062;2023-02-15T00:19:04;41.20;;;34.03;;
9972;SDS011;5027;53.560;10.062;2023-02-15T00:21:32;40.23;;;33.43;;
9972;SDS011;5027;53.560;10.062;2023-02-15T00:24:01;41.70;;;34.50;;
9972;SDS011;5027;53.560;10.062;2023-02-15T00:26:29;37.73;;;32.83;;
9972;SDS011;5027;53.560;10.062;2023-02-15T00:28:56;39.07;;;32.87;;
9972;SDS011;5027;53.560;10.062;2023-02-15T00:31:27;39.40;;;33.00;;
9972;SDS011;5027;53.560;10.062;2023-02-15T00:34:03;40.03;;;32.97;;
9972;SDS011;5027;53.560;10.062;2023-02-15T00:36:31;41.57;;;33.57;;
9972;SDS011;5027;53.560;10.062;2023-02-15T00:38:58;43.23;;;34.60;;
9972;SDS011;5027;53.560;10.062;2023-02-15T00:41:25;42.00;;;34.70;;
9972;SDS011;5027;53.560;10.062;2023-02-15T00:43:52;41.37;;;35.17;;
9972;SDS011;5027;53.560;10.062;2023-02-15T00:46:18;42.43;;;34.20;;
9972;SDS011;5027;53.560;10.062;2023-02-15T00:48:45;37.80;;;33.57;;
9972;SDS011;5027;53.560;10.062;2023-02-15T00:51:12;39.03;;;33.60;;
9972;SDS011;5027;53.560;10.062;2023-02-15T00:53:39;42.23;;;34.33;;
9972;SDS011;5027;53.560;10.062;2023-02-15T00:56:06;38.30;;;32.07;;
9972;SDS011;5027;53.560;10.062;2023-02-15T00:58:33;38.47;;;32.60;;
9972;SDS011;5027;53.560;10.062;2023-02-15T01:01:06;37.83;;;32.87;;
9972;SDS011;5027;53.560;10.062;2023-02-15T01:03:36;43.30;;;33.80;;
9972;SDS011;5027;53.560;10.062;2023-02-15T01:06:03;40.53;;;34.67;;
9972;SDS011;5027;53.560;10.062;2023-02-15T01:08:31;40.57;;;33.83;;
9972;SDS011;5027;53.560;10.062;2023-02-15T01:11:02;47.30;;;34.77;;
9972;SDS011;5027;53.560;10.062;2023-02-15T01:13:32;42.93;;;32.97;;
9972;SDS011;5027;53.560;10.062;2023-02-15T01:16:00;45.70;;;33.53;;
9972;SDS011;5027;53.560;10.062;2023-02-15T01:18:28;47.17;;;32.67;;
9972;SDS011;5027;53.560;10.062;2023-02-15T01:20:56;42.20;;;33.87;;
9972;SDS011;5027;53.560;10.062;2023-02-15T01:23:23;43.40;;;34.70;;
9972;SDS011;5027;53.560;10.062;2023-02-15T01:25:50;37.60;;;32.53;;
9972;SDS011;5027;53.560;10.062;2023-02-15T01:28:16;39.30;;;32.83;;
9972;SDS011;5027;53.560;10.062;2023-02-15T01:30:43;40.97;;;33.17;;
9972;SDS011;5027;53.560;10.062;2023-02-15T01:33:10;39.10;;;33.00;;
9972;SDS011;5027;53.560;10.062;2023-02-15T01:35:44;39.13;;;32.60;;
9972;SDS011;5027;53.560;10.062;2023-02-15T01:38:12;44.53;;;35.10;;
9972;SDS011;5027;53.560;10.062;2023-02-15T01:40:40;42.03;;;33.23;;
9972;SDS011;5027;53.560;10.062;2023-02-15T01:43:10;42.90;;;32.43;;
9972;SDS011;5027;53.560;10.062;2023-02-15T01:45:38;42.10;;;34.13;;
9972;SDS011;5027;53.560;10.062;2023-02-15T01:48:06;39.83;;;32.93;;
9972;SDS011;5027;53.560;10.062;2023-02-15T01:50:44;43.97;;;33.77;;
9972;SDS011;5027;53.560;10.062;2023-02-15T01:53:29;37.70;;;31.83;;
9972;SDS011;5027;53.560;10.062;2023-02-15T01:56:07;40.03;;;32.27;;
9972;SDS011;5027;53.560;10.062;2023-02-15T01:58:38;43.13;;;32.57;;
9972;SDS011;5027;53.560;10.062;2023-02-15T02:01:05;46.53;;;35.40;;
9972;SDS011;5027;53.560;10.062;2023-02-15T02:03:56;41.23;;;32.53;;
9972;SDS011;5027;53.560;10.062;2023-02-15T02:06:42;43.90;;;34.37;;
9972;SDS011;5027;53.560;10.062;2023-02-15T02:09:12;43.13;;;35.57;;
9972;SDS011;5027;53.560;10.062;2023-02-15T02:11:40;42.53;;;34.03;;
9972;SDS011;5027;53.560;10.062;2023-02-15T02:14:11;43.17;;;35.23;;
9972;SDS011;5027;53.560;10.062;2023-02-15T02:16:57;46.03;;;36.50;;
9972;SDS011;5027;53.560;10.062;2023-02-15T02:25:12;45.63;;;35.80;;
9972;SDS011;5027;53.560;10.062;2023-02-15T02:27:49;45.67;;;36.27;;
9972;SDS011;5027;53.560;10.062;2023-02-15T02:30:44;42.93;;;34.80;;
9972;SDS011;5027;53.560;10.062;2023-02-15T02:33:48;41.83;;;31.53;;
9972;SDS011;5027;53.560;10.062;2023-02-15T02:36:35;44.20;;;33.10;;
9972;SDS011;5027;53.560;10.062;2023-02-15T02:39:21;42.63;;;34.17;;
9972;SDS011;5027;53.560;10.062;2023-02-15T02:44:41;40.90;;;34.00;;
9972;SDS011;5027;53.560;10.062;2023-02-15T02:47:30;40.63;;;34.20;;
9972;SDS011;5027;53.560;10.062;2023-02-15T02:50:05;42.67;;;32.53;;
9972;SDS011;5027;53.560;10.062;2023-02-15T02:52:36;37.77;;;32.80;;
9972;SDS011;5027;53.560;10.062;2023-02-15T02:55:04;41.57;;;30.77;;
9972;SDS011;5027;53.560;10.062;2023-02-15T02:57:39;45.27;;;32.67;;
9972;SDS011;5027;53.560;10.062;2023-02-15T03:00:09;45.33;;;33.67;;
9972;SDS011;5027;53.560;10.062;2023-02-15T03:02:38;38.57;;;32.07;;
9972;SDS011;5027;53.560;10.062;2023-02-15T03:05:09;39.47;;;32.33;;
9972;SDS011;5027;53.560;10.062;2023-02-15T03:07:41;38.23;;;31.60;;
9972;SDS011;5027;53.560;10.062;2023-02-15T03:10:09;35.70;;;31.60;;
9972;SDS011;5027;53.560;10.062;2023-02-15T03:12:37;37.17;;;32.07;;
9972;SDS011;5027;53.560;10.062;2023-02-15T03:17:48;40.30;;;32.27;;
9972;SDS011;5027;53.560;10.062;2023-02-15T03:20:27;38.30;;;32.37;;
9972;SDS011;5027;53.560;10.062;2023-02-15T03:23:02;37.60;;;31.63;;
9972;SDS011;5027;53.560;10.062;2023-02-15T03:25:33;35.67;;;31.30;;
9972;SDS011;5027;53.560;10.062;2023-02-15T03:28:05;35.47;;;30.43;;
9972;SDS011;5027;53.560;10.062;2023-02-15T03:30:35;34.83;;;31.07;;
9972;SDS011;5027;53.560;10.062;2023-02-15T03:33:04;37.37;;;29.67;;
9972;SDS011;5027;53.560;10.062;2023-02-15T03:35:46;35.43;;;29.13;;
9972;SDS011;5027;53.560;10.062;2023-02-15T03:38:36;44.07;;;29.40;;
9972;SDS011;5027;53.560;10.062;2023-02-15T03:41:11;38.13;;;31.40;;
9972;SDS011;5027;53.560;10.062;2023-02-15T03:43:44;34.77;;;30.63;;
9972;SDS011;5027;53.560;10.062;2023-02-15T03:46:31;38.17;;;30.83;;
9972;SDS011;5027;53.560;10.062;2023-02-15T03:51:46;33.97;;;29.07;;
9972;SDS011;5027;53.560;10.062;2023-02-15T03:54:30;37.00;;;30.87;;
9972;SDS011;5027;53.560;10.062;2023-02-15T03:57:13;34.33;;;29.77;;
9972;SDS011;5027;53.560;10.062;2023-02-15T04:00:14;34.70;;;29.20;;
9972;SDS011;5027;53.560;10.062;2023-02-15T04:05:41;35.63;;;30.43;;
9972;SDS011;5027;53.560;10.062;2023-02-15T04:08:09;37.87;;;31.30;;
9972;SDS011;5027;53.560;10.062;2023-02-15T04:10:37;36.70;;;31.47;;
9972;SDS011;5027;53.560;10.062;2023-02-15T04:13:29;37.97;;;31.40;;
9972;SDS011;5027;53.560;10.062;2023-02-15T04:15:57;36.53;;;30.37;;
9972;SDS011;5027;53.560;10.062;2023-02-15T04:18:42;35.30;;;28.10;;
9972;SDS011;5027;53.560;10.062;2023-02-15T04:21:29;34.90;;;29.10;;
9972;SDS011;5027;53.560;10.062;2023-02-15T04:24:15;38.17;;;29.03;;
9972;SDS011;5027;53.560;10.062;2023-02-15T04:27:01;35.20;;;27.77;;
9972;SDS011;5027;53.560;10.062;2023-02-15T04:29:29;37.63;;;27.30;;
9972;SDS011;5027;53.560;10.062;2023-02-15T04:31:57;32.13;;;28.63;;
9972;SDS011;5027;53.560;10.062;2023-02-15T04:34:26;34.57;;;28.03;;
9972;SDS011;5027;53.560;10.062;2023-02-15T04:36:52;32.40;;;27.43;;
9972;SDS011;5027;53.560;10.062;2023-02-15T04:39:19;29.20;;;25.70;;
9972;SDS011;5027;53.560;10.062;2023-02-15T04:41:46;33.67;;;25.40;;
9972;SDS011;5027;53.560;10.062;2023-02-15T04:44:14;28.90;;;25.30;;
9972;SDS011;5027;53.560;10.062;2023-02-15T04:46:40;31.23;;;25.60;;
9972;SDS011;5027;53.560;10.062;2023-02-15T04:49:07;28.83;;;24.57;;
9972;SDS011;5027;53.560;10.062;2023-02-15T04:51:34;29.90;;;26.67;;
9972;SDS011;5027;53.560;10.062;2023-02-15T04:54:01;29.57;;;26.40;;
9972;SDS011;5027;53.560;10.062;2023-02-15T04:56:27;29.77;;;26.67;;
9972;SDS011;5027;53.560;10.062;2023-02-15T04:58:56;30.30;;;25.10;;
9972;SDS011;5027;53.560;10.062;2023-02-15T05:01:22;26.90;;;24.10;;
9972;SDS011;5027;53.560;10.062;2023-02-15T05:03:49;29.57;;;25.97;;
9972;SDS011;5027;53.560;10.062;2023-02-15T05:06:16;32.97;;;26.27;;
9972;SDS011;5027;53.560;10.062;2023-02-15T05:08:42;31.83;;;25.97;;
9972;SDS011;5027;53.560;10.062;2023-02-15T05:11:09;31.93;;;25.47;;
9972;SDS011;5027;53.560;10.062;2023-02-15T05:13:36;37.23;;;27.00;;
9972;SDS011;5027;53.560;10.062;2023-02-15T05:16:02;35.37;;;28.13;;
9972;SDS011;5027;53.560;10.062;2023-02-15T05:18:29;45.03;;;29.67;;
9972;SDS011;5027;53.560;10.062;2023-02-15T05:20:56;35.80;;;27.43;;
9972;SDS011;5027;53.560;10.062;2023-02-15T05:23:23;29.80;;;26.57;;
9972;SDS011;5027;53.560;10.062;2023-02-15T05:25:50;33.37;;;25.83;;
9972;SDS011;5027;53.560;10.062;2023-02-15T05:28:35;31.63;;;25.00;;
9972;SDS011;5027;53.560;10.062;2023-02-15T05:31:05;28.00;;;24.97;;
9972;SDS011;5027;53.560;10.062;2023-02-15T05:33:39;28.60;;;24.70;;
9972;SDS011;5027;53.560;10.062;2023-02-15T05:36:06;37.37;;;23.50;;
9972;SDS011;5027;53.560;10.062;2023-02-15T05:38:33;33.47;;;24.10;;
9972;SDS011;5027;53.560;10.062;2023-02-15T05:41:05;28.30;;;24.30;;
9972;SDS011;5027;53.560;10.062;2023-02-15T05:43:34;32.57;;;23.20;;
9972;SDS011;5027;53.560;10.062;2023-02-15T05:46:01;27.40;;;24.40;;
9972;SDS011;5027;53.560;10.062;2023-02-15T05:48:29;31.93;;;24.27;;
9972;SDS011;5027;53.560;10.062;2023-02-15T05:50:59;30.40;;;25.07;;
9972;SDS011;5027;53.560;10.062;2023-02-15T05:53:29;33.27;;;23.60;;
9972;SDS011;5027;53.560;10.062;2023-02-15T05:55:57;26.80;;;23.67;;
9972;SDS011;5027;53.560;10.062;2023-02-15T05:58:28;27.87;;;24.27;;
9972;SDS011;5027;53.560;10.062;2023-02-15T06:00:57;28.17;;;23.37;;
9972;SDS011;5027;53.560;10.062;2023-02-15T06:03:24;26.90;;;23.10;;
9972;SDS011;5027;53.560;10.062;2023-02-15T06:05:52;25.77;;;22.33;;
9972;SDS011;5027;53.560;10.062;2023-02-15T06:08:18;25.27;;;22.53;;
9972;SDS011;5027;53.560;10.062;2023-02-15T06:10:46;24.83;;;22.03;;
9972;SDS011;5027;53.560;10.062;2023-02-15T06:13:12;24.43;;;21.13;;
9972;SDS011;5027;53.560;10.062;2023-02-15T06:15:39;29.50;;;22.00;;
9972;SDS011;5027;53.560;10.062;2023-02-15T06:18:06;24.70;;;21.50;;
9972;SDS011;5027;53.560;10.062;2023-02-15T06:20:32;28.90;;;22.73;;
9972;SDS011;5027;53.560;10.062;2023-02-15T06:22:59;24.10;;;21.70;;
9972;SDS011;5027;53.560;10.062;2023-02-15T06:25:25;26.90;;;23.00;;
9972;SDS011;5027;53.560;10.062;2023-02-15T06:27:52;24.80;;;22.20;;
9972;SDS011;5027;53.560;10.062;2023-02-15T06:30:19;25.73;;;22.83;;
9972;SDS011;5027;53.560;10.062;2023-02-15T06:32:46;25.67;;;21.67;;
9972;SDS011;5027;53.560;10.062;2023-02-15T06:35:13;24.60;;;22.00;;
9972;SDS011;5027;53.560;10.062;2023-02-15T06:37:40;27.43;;;21.97;;
9972;SDS011;5027;53.560;10.062;2023-02-15T06:40:07;24.73;;;22.07;;
9972;SDS011;5027;53.560;10.062;2023-02-15T06:42:34;24.47;;;21.87;;
9972;SDS011;5027;53.560;10.062;2023-02-15T06:45:01;28.17;;;22.37;;
9972;SDS011;5027;53.560;10.062;2023-02-15T06:47:27;26.47;;;23.27;;
9972;SDS011;5027;53.560;10.062;2023-02-15T06:49:54;24.93;;;22.20;;
9972;SDS011;5027;53.560;10.062;2023-02-15T06:52:21;27.43;;;23.00;;
9972;SDS011;5027;53.560;10.062;2023-02-15T06:54:48;29.23;;;24.63;;
9972;SDS011;5027;53.560;10.062;2023-02-15T06:57:15;33.77;;;25.93;;
9972;SDS011;5027;53.560;10.062;2023-02-15T06:59:41;28.27;;;23.33;;
9972;SDS011;5027;53.560;10.062;2023-02-15T07:02:08;29.93;;;26.50;;
9972;SDS011;5027;53.560;10.062;2023-02-15T07:04:37;32.07;;;26.03;;
9972;SDS011;5027;53.560;10.062;2023-02-15T07:07:04;32.80;;;27.03;;
9972;SDS011;5027;53.560;10.062;2023-02-15T07:09:35;32.30;;;25.20;;
9972;SDS011;5027;53.560;10.062;2023-02-15T07:12:02;35.87;;;26.80;;
9972;SDS011;5027;53.560;10.062;2023-02-15T07:14:47;32.77;;;25.23;;
9972;SDS011;5027;53.560;10.062;2023-02-15T07:17:14;32.47;;;26.87;;
9972;SDS011;5027;53.560;10.062;2023-02-15T07:20:02;33.10;;;25.40;;
9972;SDS011;5027;53.560;10.062;2023-02-15T07:22:30;33.77;;;26.27;;
9972;SDS011;5027;53.560;10.062;2023-02-15T07:24:57;37.43;;;27.03;;
9972;SDS011;5027;53.560;10.062;2023-02-15T07:27:23;31.50;;;24.83;;
9972;SDS011;5027;53.560;10.062;2023-02-15T07:29:50;34.63;;;26.53;;
9972;SDS011;5027;53.560;10.062;2023-02-15T07:32:17;34.50;;;29.27;;
9972;SDS011;5027;53.560;10.062;2023-02-15T07:34:43;31.93;;;27.20;;
9972;SDS011;5027;53.560;10.062;2023-02-15T07:37:10;30.30;;;26.00;;
9972;SDS011;5027;53.560;10.062;2023-02-15T07:39:37;28.17;;;25.13;;
9972;SDS011;5027;53.560;10.062;2023-02-15T07:42:03;32.30;;;25.53;;
9972;SDS011;5027;53.560;10.062;2023-02-15T07:44:30;30.40;;;23.80;;
9972;SDS011;5027;53.560;10.062;2023-02-15T07:46:57;31.50;;;25.57;;
9972;SDS011;5027;53.560;10.062;2023-02-15T07:49:23;28.60;;;25.33;;
9972;SDS011;5027;53.560;10.062;2023-02-15T07:51:50;32.43;;;23.93;;
9972;SDS011;5027;53.560;10.062;2023-02-15T07:54:17;30.73;;;23.83;;
9972;SDS011;5027;53.560;10.062;2023-02-15T07:56:43;30.40;;;23.00;;
9972;SDS011;5027;53.560;10.062;2023-02-15T07:59:10;25.83;;;21.93;;
9972;SDS011;5027;53.560;10.062;2023-02-15T08:01:37;26.03;;;23.20;;
9972;SDS011;5027;53.560;10.062;2023-02-15T08:04:05;28.47;;;21.83;;
9972;SDS011;5027;53.560;10.062;2023-02-15T08:06:34;26.47;;;23.37;;
9972;SDS011;5027;53.560;10.062;2023-02-15T08:09:08;27.67;;;22.40;;
9972;SDS011;5027;53.560;10.062;2023-02-15T08:11:35;25.67;;;22.23;;
9972;SDS011;5027;53.560;10.062;2023-02-15T08:14:05;29.87;;;22.67;;
9972;SDS011;5027;53.560;10.062;2023-02-15T08:19:02;30.00;;;24.50;;
9972;SDS011;5027;53.560;10.062;2023-02-15T08:21:33;26.77;;;23.07;;
9972;SDS011;5027;53.560;10.062;2023-02-15T08:24:01;32.00;;;23.63;;
9972;SDS011;5027;53.560;10.062;2023-02-15T08:26:29;32.03;;;23.93;;
9972;SDS011;5027;53.560;10.062;2023-02-15T08:28:56;30.20;;;25.17;;
9972;SDS011;5027;53.560;10.062;2023-02-15T08:31:24;30.43;;;24.33;;
9972;SDS011;5027;53.560;10.062;2023-02-15T08:33:52;32.50;;;25.67;;
9972;SDS011;5027;53.560;10.062;2023-02-15T08:40:44;28.30;;;23.63;;
9972;SDS011;5027;53.560;10.062;2023-02-15T08:43:11;27.47;;;23.30;;
9972;SDS011;5027;53.560;10.062;2023-02-15T08:45:38;30.30;;;23.23;;
9972;SDS011;5027;53.560;10.062;2023-02-15T08:48:04;26.20;;;23.23;;
9972;SDS011;5027;53.560;10.062;2023-02-15T08:50:31;27.17;;;23.43;;
9972;SDS011;5027;53.560;10.062;2023-02-15T08:52:58;28.70;;;21.23;;
9972;SDS011;5027;53.560;10.062;2023-02-15T08:55:24;24.63;;;20.90;;
9972;SDS011;5027;53.560;10.062;2023-02-15T08:57:51;25.63;;;19.80;;
9972;SDS011;5027;53.560;10.062;2023-02-15T09:00:21;23.83;;;20.93;;
9972;SDS011;5027;53.560;10.062;2023-02-15T09:02:48;33.17;;;22.93;;
9972;SDS011;5027;53.560;10.062;2023-02-15T09:05:15;28.00;;;22.53;;
9972;SDS011;5027;53.560;10.062;2023-02-15T09:07:41;31.17;;;22.17;;
9972;SDS011;5027;53.560;10.062;2023-02-15T09:10:08;24.53;;;21.93;;
9972;SDS011;5027;53.560;10.062;2023-02-15T09:12:35;28.20;;;21.53;;
9972;SDS011;5027;53.560;10.062;2023-02-15T09:15:02;25.93;;;22.53;;
9972;SDS011;5027;53.560;10.062;2023-02-15T09:17:29;28.43;;;22.20;;
9972;SDS011;5027;53.560;10.062;2023-02-15T09:19:55;26.97;;;22.40;;
9972;SDS011;5027;53.560;10.062;2023-02-15T09:22:23;27.40;;;24.53;;
9972;SDS011;5027;53.560;10.062;2023-02-15T09:24:50;24.80;;;22.00;;
9972;SDS011;5027;53.560;10.062;2023-02-15T09:27:16;26.83;;;23.07;;
9972;SDS011;5027;53.560;10.062;2023-02-15T09:29:43;24.13;;;21.57;;
9972;SDS011;5027;53.560;10.062;2023-02-15T09:32:10;28.07;;;22.40;;
9972;SDS011;5027;53.560;10.062;2023-02-15T09:34:40;28.07;;;23.80;;
9972;SDS011;5027;53.560;10.062;2023-02-15T09:37:07;26.43;;;22.60;;
9972;SDS011;5027;53.560;10.062;2023-02-15T09:39:33;25.90;;;22.93;;
9972;SDS011;5027;53.560;10.062;2023-02-15T09:44:50;29.10;;;25.50;;
9972;SDS011;5027;53.560;10.062;2023-02-15T10:04:50;32.13;;;25.87;;
9972;SDS011;5027;53.560;10.062;2023-02-15T10:10:43;31.70;;;26.63;;
9972;SDS011;5027;53.560;10.062;2023-02-15T10:16:10;32.97;;;27.83;;
9972;SDS011;5027;53.560;10.062;2023-02-15T10:18:49;32.07;;;27.90;;
9972;SDS011;5027;53.560;10.062;2023-02-15T10:21:29;38.00;;;28.90;;
9972;SDS011;5027;53.560;10.062;2023-02-15T10:24:18;28.93;;;25.73;;
9972;SDS011;5027;53.560;10.062;2023-02-15T10:27:20;29.23;;;26.20;;
9972;SDS011;5027;53.560;10.062;2023-02-15T10:29:58;32.73;;;27.10;;
9972;SDS011;5027;53.560;10.062;2023-02-15T10:32:45;30.27;;;24.30;;
9972;SDS011;5027;53.560;10.062;2023-02-15T10:35:33;24.60;;;22.00;;
9972;SDS011;5027;53.560;10.062;2023-02-15T10:43:52;25.93;;;22.87;;
9972;SDS011;5027;53.560;10.062;2023-02-15T10:46:51;29.93;;;24.80;;
9972;SDS011;5027;53.560;10.062;2023-02-15T10:49:52;27.63;;;24.70;;
9972;SDS011;5027;53.560;10.062;2023-02-15T10:52:50;26.70;;;22.60;;
9972;SDS011;5027;53.560;10.062;2023-02-15T10:55:30;31.63;;;24.23;;
9972;SDS011;5027;53.560;10.062;2023-02-15T10:58:24;28.80;;;25.43;;
9972;SDS011;5027;53.560;10.062;2023-02-15T11:06:43;37.80;;;31.77;;
9972;SDS011;5027;53.560;10.062;2023-02-15T11:09:17;38.03;;;31.20;;
9972;SDS011;5027;53.560;10.062;2023-02-15T11:11:48;34.23;;;30.17;;
9972;SDS011;5027;53.560;10.062;2023-02-15T11:14:33;37.97;;;30.33;;
9972;SDS011;5027;53.560;10.062;2023-02-15T11:17:12;35.70;;;29.87;;
9972;SDS011;5027;53.560;10.062;2023-02-15T11:19:50;38.27;;;31.53;;
9972;SDS011;5027;53.560;10.062;2023-02-15T11:22:29;34.33;;;29.60;;
9972;SDS011;5027;53.560;10.062;2023-02-15T11:24:58;37.10;;;31.30;;
9972;SDS011;5027;53.560;10.062;2023-02-15T11:27:29;36.00;;;31.17;;
9972;SDS011;5027;53.560;10.062;2023-02-15T11:30:00;37.23;;;31.83;;
9972;SDS011;5027;53.560;10.062;2023-02-15T11:32:37;40.73;;;33.47;;
9972;SDS011;5027;53.560;10.062;2023-02-15T11:37:47;36.53;;;31.90;;
9972;SDS011;5027;53.560;10.062;2023-02-15T11:42:48;38.20;;;31.47;;
9972;SDS011;5027;53.560;10.062;2023-02-15T11:45:19;37.77;;;31.57;;
9972;SDS011;5027;53.560;10.062;2023-02-15T11:47:47;39.73;;;34.73;;
9972;SDS011;5027;53.560;10.062;2023-02-15T11:50:15;37.50;;;33.00;;
9972;SDS011;5027;53.560;10.062;2023-02-15T11:52:49;36.80;;;32.80;;
9972;SDS011;5027;53.560;10.062;2023-02-15T11:55:19;38.33;;;33.67;;
9972;SDS011;5027;53.560;10.062;2023-02-15T12:00:46;37.23;;;32.97;;
9972;SDS011;5027;53.560;10.062;2023-02-15T12:06:02;43.47;;;34.93;;
9972;SDS011;5027;53.560;10.062;2023-02-15T12:08:37;41.67;;;37.27;;
9972;SDS011;5027;53.560;10.062;2023-02-15T12:11:10;40.17;;;35.87;;
9972;SDS011;5027;53.560;10.062;2023-02-15T12:13:54;39.03;;;34.83;;
9972;SDS011;5027;53.560;10.062;2023-02-15T12:16:26;41.90;;;34.73;;
9972;SDS011;5027;53.560;10.062;2023-02-15T12:18:56;41.87;;;35.93;;
9972;SDS011;5027;53.560;10.062;2023-02-15T12:21:43;39.57;;;35.33;;
9972;SDS011;5027;53.560;10.062;2023-02-15T12:24:16;45.00;;;36.07;;
9972;SDS011;5027;53.560;10.062;2023-02-15T12:26:55;41.40;;;36.10;;
9972;SDS011;5027;53.560;10.062;2023-02-15T12:29:25;40.67;;;36.27;;
9972;SDS011;5027;53.560;10.062;2023-02-15T12:31:55;42.30;;;37.53;;
9972;SDS011;5027;53.560;10.062;2023-02-15T12:34:31;40.80;;;36.37;;
9972;SDS011;5027;53.560;10.062;2023-02-15T12:37:09;42.10;;;36.00;;
9972;SDS011;5027;53.560;10.062;2023-02-15T12:40:00;41.77;;;37.37;;
9972;SDS011;5027;53.560;10.062;2023-02-15T12:42:47;38.97;;;34.70;;
9972;SDS011;5027;53.560;10.062;2023-02-15T12:45:22;38.77;;;34.57;;
9972;SDS011;5027;53.560;10.062;2023-02-15T12:48:07;35.20;;;31.50;;
9972;SDS011;5027;53.560;10.062;2023-02-15T12:50:45;39.43;;;32.20;;
9972;SDS011;5027;53.560;10.062;2023-02-15T12:53:38;34.20;;;30.63;;
9972;SDS011;5027;53.560;10.062;2023-02-15T12:56:07;32.60;;;29.30;;
9972;SDS011;5027;53.560;10.062;2023-02-15T12:58:39;32.17;;;28.77;;
9972;SDS011;5027;53.560;10.062;2023-02-15T13:01:11;32.77;;;29.27;;
9972;SDS011;5027;53.560;10.062;2023-02-15T13:03:58;31.57;;;28.27;;
9972;SDS011;5027;53.560;10.062;2023-02-15T13:06:27;35.33;;;28.47;;
9972;SDS011;5027;53.560;10.062;2023-02-15T13:09:15;28.50;;;25.60;;
9972;SDS011;5027;53.560;10.062;2023-02-15T13:12:09;29.10;;;26.03;;
9972;SDS011;5027;53.560;10.062;2023-02-15T13:14:45;31.57;;;25.57;;
9972;SDS011;5027;53.560;10.062;2023-02-15T13:17:17;28.67;;;25.73;;
9972;SDS011;5027;53.560;10.062;2023-02-15T13:19:50;28.17;;;25.23;;
9972;SDS011;5027;53.560;10.062;2023-02-15T13:22:20;29.00;;;26.00;;
9972;SDS011;5027;53.560;10.062;2023-02-15T13:24:57;26.67;;;24.00;;
9972;SDS011;5027;53.560;10.062;2023-02-15T13:27:37;27.83;;;23.33;;
9972;SDS011;5027;53.560;10.062;2023-02-15T13:30:23;25.17;;;22.33;;
9972;SDS011;5027;53.560;10.062;2023-02-15T13:32:59;25.17;;;22.17;;
9972;SDS011;5027;53.560;10.062;2023-02-15T13:35:49;23.83;;;20.97;;
9972;SDS011;5027;53.560;10.062;2023-02-15T13:38:34;22.73;;;20.47;;
9972;SDS011;5027;53.560;10.062;2023-02-15T13:41:14;24.50;;;22.00;;
9972;SDS011;5027;53.560;10.062;2023-02-15T13:43:58;25.23;;;22.33;;
9972;SDS011;5027;53.560;10.062;2023-02-15T13:46:44;27.30;;;21.87;;
9972;SDS011;5027;53.560;10.062;2023-02-15T13:49:25;23.83;;;21.33;;
9972;SDS011;5027;53.560;10.062;2023-02-15T13:52:21;23.47;;;21.17;;
9972;SDS011;5027;53.560;10.062;2023-02-15T13:55:13;21.97;;;19.80;;
9972;SDS011;5027;53.560;10.062;2023-02-15T13:57:55;23.10;;;20.23;;
9972;SDS011;5027;53.560;10.062;2023-02-15T14:00:43;24.97;;;22.37;;
9972;SDS011;5027;53.560;10.062;2023-02-15T14:09:48;22.97;;;20.53;;
9972;SDS011;5027;53.560;10.062;2023-02-15T14:12:41;22.33;;;20.10;;
9972;SDS011;5027;53.560;10.062;2023-02-15T14:15:29;21.90;;;19.83;;
9972;SDS011;5027;53.560;10.062;2023-02-15T14:18:18;20.43;;;18.37;;
9972;SDS011;5027;53.560;10.062;2023-02-15T14:21:05;21.60;;;18.60;;
9972;SDS011;5027;53.560;10.062;2023-02-15T14:30:12;21.90;;;19.17;;
9972;SDS011;5027;53.560;10.062;2023-02-15T14:33:01;23.10;;;18.50;;
9972;SDS011;5027;53.560;10.062;2023-02-15T14:35:35;21.87;;;19.63;;
9972;SDS011;5027;53.560;10.062;2023-02-15T14:40:57;23.57;;;21.17;;
9972;SDS011;5027;53.560;10.062;2023-02-15T14:43:48;21.23;;;19.13;;
9972;SDS011;5027;53.560;10.062;2023-02-15T14:46:38;24.03;;;21.27;;
9972;SDS011;5027;53.560;10.062;2023-02-15T14:49:12;23.63;;;21.10;;
9972;SDS011;5027;53.560;10.062;2023-02-15T14:54:09;23.07;;;20.23;;
9972;SDS011;5027;53.560;10.062;2023-02-15T14:59:50;22.67;;;20.37;;
9972;SDS011;5027;53.560;10.062;2023-02-15T15:03:23;22.27;;;19.87;;
9972;SDS011;5027;53.560;10.062;2023-02-15T15:05:58;21.90;;;19.77;;
9972;SDS011;5027;53.560;10.062;2023-02-15T15:18:10;23.10;;;20.63;;
9972;SDS011;5027;53.560;10.062;2023-02-15T15:20:57;25.17;;;21.00;;
9972;SDS011;5027;53.560;10.062;2023-02-15T15:29:06;22.07;;;19.83;;
9972;SDS011;5027;53.560;10.062;2023-02-15T15:31:54;21.60;;;19.17;;
9972;SDS011;5027;53.560;10.062;2023-02-15T15:34:57;22.30;;;20.00;;
9972;SDS011;5027;53.560;10.062;2023-02-15T15:40:30;22.53;;;19.83;;
9972;SDS011;5027;53.560;10.062;2023-02-15T15:43:27;21.00;;;19.00;;
9972;SDS011;5027;53.560;10.062;2023-02-15T15:46:32;21.70;;;19.50;;
9972;SDS011;5027;53.560;10.062;2023-02-15T15:49:20;20.43;;;18.43;;
9972;SDS011;5027;53.560;10.062;2023-02-15T15:51:49;20.40;;;18.30;;
9972;SDS011;5027;53.560;10.062;2023-02-15T15:54:30;20.67;;;18.67;;
9972;SDS011;5027;53.560;10.062;2023-02-15T15:56:59;20.70;;;18.53;;
9972;SDS011;5027;53.560;10.062;2023-02-15T15:59:32;20.07;;;17.87;;
9972;SDS011;5027;53.560;10.062;2023-02-15T16:02:04;20.47;;;18.40;;
9972;SDS011;5027;53.560;10.062;2023-02-15T16:04:37;20.20;;;18.20;;
9972;SDS011;5027;53.560;10.062;2023-02-15T16:09:59;20.77;;;18.67;;
9972;SDS011;5027;53.560;10.062;2023-02-15T16:12:27;20.47;;;18.43;;
9972;SDS011;5027;53.560;10.062;2023-02-15T16:14:56;21.00;;;18.73;;
9972;SDS011;5027;53.560;10.062;2023-02-15T16:17:27;20.60;;;18.50;;
9972;SDS011;5027;53.560;10.062;2023-02-15T16:20:02;20.20;;;18.30;;
9972;SDS011;5027;53.560;10.062;2023-02-15T16:22:39;20.40;;;17.83;;
9972;SDS011;5027;53.560;10.062;2023-02-15T16:28:05;21.00;;;18.90;;
9972;SDS011;5027;53.560;10.062;2023-02-15T16:30:38;21.27;;;19.07;;
9972;SDS011;5027;53.560;10.062;2023-02-15T16:33:13;22.03;;;19.77;;
9972;SDS011;5027;53.560;10.062;2023-02-15T16:35:55;21.30;;;19.30;;
9972;SDS011;5027;53.560;10.062;2023-02-15T16:39:07;20.43;;;18.50;;
9972;SDS011;5027;53.560;10.062;2023-02-15T16:41:31;20.87;;;18.87;;
9972;SDS011;5027;53.560;10.062;2023-02-15T16:44:06;21.87;;;19.70;;
9972;SDS011;5027;53.560;10.062;2023-02-15T16:46:42;22.07;;;19.63;;
9972;SDS011;5027;53.560;10.062;2023-02-15T16:49:30;21.40;;;19.30;;
9972;SDS011;5027;53.560;10.062;2023-02-15T16:52:04;21.33;;;19.13;;
9972;SDS011;5027;53.560;10.062;2023-02-15T16:54:33;21.67;;;19.30;;
9972;SDS011;5027;53.560;10.062;2023-02-15T16:57:01;20.57;;;18.57;;
9972;SDS011;5027;53.560;10.062;2023-02-15T17:02:31;21.63;;;19.50;;
9972;SDS011;5027;53.560;10.062;2023-02-15T17:05:19;21.87;;;19.67;;
9972;SDS011;5027;53.560;10.062;2023-02-15T17:07:51;20.67;;;18.67;;
9972;SDS011;5027;53.560;10.062;2023-02-15T17:10:39;21.50;;;19.33;;
9972;SDS011;5027;53.560;10.062;2023-02-15T17:15:40;21.60;;;18.93;;